sensor_id;sensor_type;location;lat;lon;timestamp;pressure;altitude;pressure_sealevel;temperature
73937;BMP180;59249;59.736;30.568;2023-02-11T00:01:39;100311.00;;;-2.50
73937;BMP180;59249;59.736;30.568;2023-02-11T00:04:07;100304.00;;;-2.50
73937;BMP180;59249;59.736;30.568;2023-02-11T00:06:36;100296.00;;;-2.50
73937;BMP180;59249;59.736;30.568;2023-02-11T00:09:05;100281.00;;;-2.40
73937;BMP180;59249;59.736;30.568;2023-02-11T00:11:34;100289.00;;;-2.50
73937;BMP180;59249;59.736;30.568;2023-02-11T00:14:04;100283.00;;;-2.50
73937;BMP180;59249;59.736;30.568;2023-02-11T00:16:36;100270.00;;;-2.40
73937;BMP180;59249;59.736;30.568;2023-02-11T00:19:05;100276.00;;;-2.40
73937;BMP180;59249;59.736;30.568;2023-02-11T00:21:34;100273.00;;;-2.30
73937;BMP180;59249;59.736;30.568;2023-02-11T00:24:03;100278.00;;;-2.30
73937;BMP180;59249;59.736;30.568;2023-02-11T00:26:33;100264.00;;;-2.30
73937;BMP180;59249;59.736;30.568;2023-02-11T00:29:03;100258.00;;;-2.20
73937;BMP180;59249;59.736;30.568;2023-02-11T00:31:32;100267.00;;;-2.20
73937;BMP180;59249;59.736;30.568;2023-02-11T00:34:05;100259.00;;;-2.20
73937;BMP180;59249;59.736;30.568;2023-02-11T00:36:34;100272.00;;;-2.20
73937;BMP180;59249;59.736;30.568;2023-02-11T00:39:03;100257.00;;;-2.20
73937;BMP180;59249;59.736;30.568;2023-02-11T00:41:34;100246.00;;;-2.20
73937;BMP180;59249;59.736;30.568;2023-02-11T00:44:04;100254.00;;;-2.20
73937;BMP180;59249;59.736;30.568;2023-02-11T00:46:32;100256.00;;;-2.20
73937;BMP180;59249;59.736;30.568;2023-02-11T00:49:01;100250.00;;;-2.20
73937;BMP180;59249;59.736;30.568;2023-02-11T00:51:31;100244.00;;;-2.20
73937;BMP180;59249;59.736;30.568;2023-02-11T00:54:02;100236.00;;;-2.20
73937;BMP180;59249;59.736;30.568;2023-02-11T00:56:33;100230.00;;;-2.20
73937;BMP180;59249;59.736;30.568;2023-02-11T00:59:01;100229.00;;;-2.20
73937;BMP180;59249;59.736;30.568;2023-02-11T01:01:30;100224.00;;;-2.20
73937;BMP180;59249;59.736;30.568;2023-02-11T01:03:59;100232.00;;;-2.20
73937;BMP180;59249;59.736;30.568;2023-02-11T01:06:28;100226.00;;;-2.20
73937;BMP180;59249;59.736;30.568;2023-02-11T01:08:58;100214.00;;;-2.20
73937;BMP180;59249;59.736;30.568;2023-02-11T01:11:28;100221.00;;;-2.20
73937;BMP180;59249;59.736;30.568;2023-02-11T01:13:56;100215.00;;;-2.20
73937;BMP180;59249;59.736;30.568;2023-02-11T01:16:25;100214.00;;;-2.20
73937;BMP180;59249;59.736;30.568;2023-02-11T01:18:54;100205.00;;;-2.20
73937;BMP180;59249;59.736;30.568;2023-02-11T01:21:22;100204.00;;;-2.20
73937;BMP180;59249;59.736;30.568;2023-02-11T01:23:51;100194.00;;;-2.20
73937;BMP180;59249;59.736;30.568;2023-02-11T01:26:22;100201.00;;;-2.10
73937;BMP180;59249;59.736;30.568;2023-02-11T01:28:50;100208.00;;;-2.10
73937;BMP180;59249;59.736;30.568;2023-02-11T01:31:19;100194.00;;;-2.20
73937;BMP180;59249;59.736;30.568;2023-02-11T01:33:48;100200.00;;;-2.10
73937;BMP180;59249;59.736;30.568;2023-02-11T01:36:16;100200.00;;;-2.10
73937;BMP180;59249;59.736;30.568;2023-02-11T01:38:45;100193.00;;;-2.10
73937;BMP180;59249;59.736;30.568;2023-02-11T01:41:18;100192.00;;;-2.10
73937;BMP180;59249;59.736;30.568;2023-02-11T01:43:48;100190.00;;;-2.10
73937;BMP180;59249;59.736;30.568;2023-02-11T01:46:27;100178.00;;;-2.10
73937;BMP180;59249;59.736;30.568;2023-02-11T01:49:02;100179.00;;;-2.20
73937;BMP180;59249;59.736;30.568;2023-02-11T01:51:36;100166.00;;;-2.10
73937;BMP180;59249;59.736;30.568;2023-02-11T01:54:10;100177.00;;;-2.20
73937;BMP180;59249;59.736;30.568;2023-02-11T01:56:57;100161.00;;;-2.20
73937;BMP180;59249;59.736;30.568;2023-02-11T01:59:49;100160.00;;;-2.10
73937;BMP180;59249;59.736;30.568;2023-02-11T02:02:28;100153.00;;;-2.20
73937;BMP180;59249;59.736;30.568;2023-02-11T02:05:05;100154.00;;;-2.20
73937;BMP180;59249;59.736;30.568;2023-02-11T02:07:41;100146.00;;;-2.20
73937;BMP180;59249;59.736;30.568;2023-02-11T02:10:20;100147.00;;;-2.20
73937;BMP180;59249;59.736;30.568;2023-02-11T02:12:51;100141.00;;;-2.10
73937;BMP180;59249;59.736;30.568;2023-02-11T02:15:28;100138.00;;;-2.10
73937;BMP180;59249;59.736;30.568;2023-02-11T02:18:13;100129.00;;;-2.20
73937;BMP180;59249;59.736;30.568;2023-02-11T02:27:51;100111.00;;;-2.10
73937;BMP180;59249;59.736;30.568;2023-02-11T02:30:45;100112.00;;;-2.20
73937;BMP180;59249;59.736;30.568;2023-02-11T02:33:44;100113.00;;;-2.10
73937;BMP180;59249;59.736;30.568;2023-02-11T02:36:22;100102.00;;;-2.10
73937;BMP180;59249;59.736;30.568;2023-02-11T02:39:02;100094.00;;;-2.20
73937;BMP180;59249;59.736;30.568;2023-02-11T02:41:34;100102.00;;;-2.10
73937;BMP180;59249;59.736;30.568;2023-02-11T02:44:06;100098.00;;;-2.20
73937;BMP180;59249;59.736;30.568;2023-02-11T02:46:36;100097.00;;;-2.10
73937;BMP180;59249;59.736;30.568;2023-02-11T02:49:11;100115.00;;;-2.10
73937;BMP180;59249;59.736;30.568;2023-02-11T02:51:58;100104.00;;;-2.10
73937;BMP180;59249;59.736;30.568;2023-02-11T02:54:56;100100.00;;;-2.10
73937;BMP180;59249;59.736;30.568;2023-02-11T02:57:57;100103.00;;;-2.10
73937;BMP180;59249;59.736;30.568;2023-02-11T03:00:45;100104.00;;;-2.00
73937;BMP180;59249;59.736;30.568;2023-02-11T03:03:28;100101.00;;;-2.00
73937;BMP180;59249;59.736;30.568;2023-02-11T03:06:09;100104.00;;;-2.00
73937;BMP180;59249;59.736;30.568;2023-02-11T03:08:45;100096.00;;;-2.00
73937;BMP180;59249;59.736;30.568;2023-02-11T03:11:19;100095.00;;;-1.90
73937;BMP180;59249;59.736;30.568;2023-02-11T03:13:51;100113.00;;;-1.90
73937;BMP180;59249;59.736;30.568;2023-02-11T03:16:25;100096.00;;;-2.00
73937;BMP180;59249;59.736;30.568;2023-02-11T03:18:58;100091.00;;;-2.00
73937;BMP180;59249;59.736;30.568;2023-02-11T03:21:32;100081.00;;;-2.00
73937;BMP180;59249;59.736;30.568;2023-02-11T03:24:08;100087.00;;;-1.90
73937;BMP180;59249;59.736;30.568;2023-02-11T03:26:44;100076.00;;;-1.90
73937;BMP180;59249;59.736;30.568;2023-02-11T03:29:22;100070.00;;;-1.90
73937;BMP180;59249;59.736;30.568;2023-02-11T03:32:05;100060.00;;;-1.90
73937;BMP180;59249;59.736;30.568;2023-02-11T03:34:46;100061.00;;;-2.00
73937;BMP180;59249;59.736;30.568;2023-02-11T03:37:23;100059.00;;;-1.90
73937;BMP180;59249;59.736;30.568;2023-02-11T03:40:00;100054.00;;;-1.90
73937;BMP180;59249;59.736;30.568;2023-02-11T03:42:39;100058.00;;;-1.90
73937;BMP180;59249;59.736;30.568;2023-02-11T03:45:15;100058.00;;;-1.90
73937;BMP180;59249;59.736;30.568;2023-02-11T03:47:49;100048.00;;;-2.00
73937;BMP180;59249;59.736;30.568;2023-02-11T03:50:23;100041.00;;;-1.90
73937;BMP180;59249;59.736;30.568;2023-02-11T03:52:55;100038.00;;;-1.90
73937;BMP180;59249;59.736;30.568;2023-02-11T03:55:27;100029.00;;;-1.90
73937;BMP180;59249;59.736;30.568;2023-02-11T03:57:57;100034.00;;;-1.90
73937;BMP180;59249;59.736;30.568;2023-02-11T04:00:29;100025.00;;;-1.80
73937;BMP180;59249;59.736;30.568;2023-02-11T04:02:59;100023.00;;;-1.80
73937;BMP180;59249;59.736;30.568;2023-02-11T04:05:28;100012.00;;;-1.80
73937;BMP180;59249;59.736;30.568;2023-02-11T04:07:58;100011.00;;;-1.80
73937;BMP180;59249;59.736;30.568;2023-02-11T04:10:27;100011.00;;;-1.90
73937;BMP180;59249;59.736;30.568;2023-02-11T04:12:56;100022.00;;;-1.80
73937;BMP180;59249;59.736;30.568;2023-02-11T04:15:25;100002.00;;;-1.90
73937;BMP180;59249;59.736;30.568;2023-02-11T04:17:54;100003.00;;;-1.90
73937;BMP180;59249;59.736;30.568;2023-02-11T04:20:22;100008.00;;;-1.90
73937;BMP180;59249;59.736;30.568;2023-02-11T04:22:51;99992.00;;;-1.80
73937;BMP180;59249;59.736;30.568;2023-02-11T04:25:21;99992.00;;;-1.90
73937;BMP180;59249;59.736;30.568;2023-02-11T04:27:51;99993.00;;;-1.80
73937;BMP180;59249;59.736;30.568;2023-02-11T04:30:20;99983.00;;;-1.80
73937;BMP180;59249;59.736;30.568;2023-02-11T04:32:49;99972.00;;;-1.80
73937;BMP180;59249;59.736;30.568;2023-02-11T04:35:20;99968.00;;;-1.80
73937;BMP180;59249;59.736;30.568;2023-02-11T04:37:48;99971.00;;;-1.80
73937;BMP180;59249;59.736;30.568;2023-02-11T04:40:17;99973.00;;;-1.80
73937;BMP180;59249;59.736;30.568;2023-02-11T04:42:47;99968.00;;;-1.80
73937;BMP180;59249;59.736;30.568;2023-02-11T04:45:16;99972.00;;;-1.80
73937;BMP180;59249;59.736;30.568;2023-02-11T04:47:45;99961.00;;;-1.70
73937;BMP180;59249;59.736;30.568;2023-02-11T04:50:14;99968.00;;;-1.70
73937;BMP180;59249;59.736;30.568;2023-02-11T04:52:42;99968.00;;;-1.80
73937;BMP180;59249;59.736;30.568;2023-02-11T04:55:11;99955.00;;;-1.70
73937;BMP180;59249;59.736;30.568;2023-02-11T04:57:40;99944.00;;;-1.80
73937;BMP180;59249;59.736;30.568;2023-02-11T05:00:11;99944.00;;;-1.80
73937;BMP180;59249;59.736;30.568;2023-02-11T05:02:41;99942.00;;;-1.70
73937;BMP180;59249;59.736;30.568;2023-02-11T05:05:09;99930.00;;;-1.70
73937;BMP180;59249;59.736;30.568;2023-02-11T05:07:38;99936.00;;;-1.70
73937;BMP180;59249;59.736;30.568;2023-02-11T05:10:07;99923.00;;;-1.60
73937;BMP180;59249;59.736;30.568;2023-02-11T05:12:36;99926.00;;;-1.60
73937;BMP180;59249;59.736;30.568;2023-02-11T05:15:05;99913.00;;;-1.70
73937;BMP180;59249;59.736;30.568;2023-02-11T05:17:36;99912.00;;;-1.60
73937;BMP180;59249;59.736;30.568;2023-02-11T05:20:05;99915.00;;;-1.60
73937;BMP180;59249;59.736;30.568;2023-02-11T05:22:34;99906.00;;;-1.60
73937;BMP180;59249;59.736;30.568;2023-02-11T05:25:04;99910.00;;;-1.60
73937;BMP180;59249;59.736;30.568;2023-02-11T05:27:33;99899.00;;;-1.60
73937;BMP180;59249;59.736;30.568;2023-02-11T05:30:02;99891.00;;;-1.70
73937;BMP180;59249;59.736;30.568;2023-02-11T05:32:31;99898.00;;;-1.70
73937;BMP180;59249;59.736;30.568;2023-02-11T05:35:01;99889.00;;;-1.60
73937;BMP180;59249;59.736;30.568;2023-02-11T05:37:30;99886.00;;;-1.70
73937;BMP180;59249;59.736;30.568;2023-02-11T05:39:59;99887.00;;;-1.60
73937;BMP180;59249;59.736;30.568;2023-02-11T05:42:28;99884.00;;;-1.70
73937;BMP180;59249;59.736;30.568;2023-02-11T05:44:57;99880.00;;;-1.60
73937;BMP180;59249;59.736;30.568;2023-02-11T05:47:26;99876.00;;;-1.60
73937;BMP180;59249;59.736;30.568;2023-02-11T05:49:55;99880.00;;;-1.60
73937;BMP180;59249;59.736;30.568;2023-02-11T05:52:25;99869.00;;;-1.60
73937;BMP180;59249;59.736;30.568;2023-02-11T05:54:53;99877.00;;;-1.60
73937;BMP180;59249;59.736;30.568;2023-02-11T05:57:22;99874.00;;;-1.50
73937;BMP180;59249;59.736;30.568;2023-02-11T05:59:51;99857.00;;;-1.50
73937;BMP180;59249;59.736;30.568;2023-02-11T06:02:19;99863.00;;;-1.50
73937;BMP180;59249;59.736;30.568;2023-02-11T06:04:48;99861.00;;;-1.40
73937;BMP180;59249;59.736;30.568;2023-02-11T06:07:17;99859.00;;;-1.50
73937;BMP180;59249;59.736;30.568;2023-02-11T06:09:48;99860.00;;;-1.40
73937;BMP180;59249;59.736;30.568;2023-02-11T06:12:17;99855.00;;;-1.50
73937;BMP180;59249;59.736;30.568;2023-02-11T06:14:45;99852.00;;;-1.40
73937;BMP180;59249;59.736;30.568;2023-02-11T06:17:14;99833.00;;;-1.50
73937;BMP180;59249;59.736;30.568;2023-02-11T06:19:43;99839.00;;;-1.40
73937;BMP180;59249;59.736;30.568;2023-02-11T06:22:11;99844.00;;;-1.30
73937;BMP180;59249;59.736;30.568;2023-02-11T06:24:40;99839.00;;;-1.40
73937;BMP180;59249;59.736;30.568;2023-02-11T06:27:30;99846.00;;;-1.20
73937;BMP180;59249;59.736;30.568;2023-02-11T06:29:59;99839.00;;;-1.20
73937;BMP180;59249;59.736;30.568;2023-02-11T06:32:30;99831.00;;;-1.20
73937;BMP180;59249;59.736;30.568;2023-02-11T06:35:16;99835.00;;;-1.20
73937;BMP180;59249;59.736;30.568;2023-02-11T06:37:44;99819.00;;;-1.20
73937;BMP180;59249;59.736;30.568;2023-02-11T06:40:18;99821.00;;;-1.20
73937;BMP180;59249;59.736;30.568;2023-02-11T06:42:48;99819.00;;;-1.10
73937;BMP180;59249;59.736;30.568;2023-02-11T06:45:17;99812.00;;;-1.10
73937;BMP180;59249;59.736;30.568;2023-02-11T06:47:46;99810.00;;;-1.10
73937;BMP180;59249;59.736;30.568;2023-02-11T06:50:15;99796.00;;;-1.10
73937;BMP180;59249;59.736;30.568;2023-02-11T06:52:44;99800.00;;;-1.10
73937;BMP180;59249;59.736;30.568;2023-02-11T06:55:13;99795.00;;;-1.10
73937;BMP180;59249;59.736;30.568;2023-02-11T06:57:42;99794.00;;;-1.20
73937;BMP180;59249;59.736;30.568;2023-02-11T07:00:13;99788.00;;;-1.10
73937;BMP180;59249;59.736;30.568;2023-02-11T07:02:42;99780.00;;;-1.10
73937;BMP180;59249;59.736;30.568;2023-02-11T07:05:11;99782.00;;;-1.10
73937;BMP180;59249;59.736;30.568;2023-02-11T07:07:39;99780.00;;;-1.00
73937;BMP180;59249;59.736;30.568;2023-02-11T07:10:08;99767.00;;;-0.90
73937;BMP180;59249;59.736;30.568;2023-02-11T07:12:38;99771.00;;;-0.80
73937;BMP180;59249;59.736;30.568;2023-02-11T07:15:07;99763.00;;;-0.80
73937;BMP180;59249;59.736;30.568;2023-02-11T07:17:37;99762.00;;;-0.80
73937;BMP180;59249;59.736;30.568;2023-02-11T07:20:06;99760.00;;;-0.80
73937;BMP180;59249;59.736;30.568;2023-02-11T07:22:38;99756.00;;;-0.70
73937;BMP180;59249;59.736;30.568;2023-02-11T07:25:07;99753.00;;;-0.70
73937;BMP180;59249;59.736;30.568;2023-02-11T07:27:36;99751.00;;;-0.70
73937;BMP180;59249;59.736;30.568;2023-02-11T07:30:05;99746.00;;;-0.70
73937;BMP180;59249;59.736;30.568;2023-02-11T07:32:35;99743.00;;;-0.60
73937;BMP180;59249;59.736;30.568;2023-02-11T07:35:05;99745.00;;;-0.60
73937;BMP180;59249;59.736;30.568;2023-02-11T07:37:35;99738.00;;;-0.60
73937;BMP180;59249;59.736;30.568;2023-02-11T07:40:04;99729.00;;;-0.50
73937;BMP180;59249;59.736;30.568;2023-02-11T07:42:33;99738.00;;;-0.40
73937;BMP180;59249;59.736;30.568;2023-02-11T07:45:02;99736.00;;;-0.50
73937;BMP180;59249;59.736;30.568;2023-02-11T07:47:33;99738.00;;;-0.50
73937;BMP180;59249;59.736;30.568;2023-02-11T07:50:01;99728.00;;;-0.40
73937;BMP180;59249;59.736;30.568;2023-02-11T07:52:31;99727.00;;;-0.40
73937;BMP180;59249;59.736;30.568;2023-02-11T07:55:00;99731.00;;;-0.50
73937;BMP180;59249;59.736;30.568;2023-02-11T07:57:30;99723.00;;;-0.50
73937;BMP180;59249;59.736;30.568;2023-02-11T07:59:59;99729.00;;;-0.50
73937;BMP180;59249;59.736;30.568;2023-02-11T08:02:36;99724.00;;;-0.40
73937;BMP180;59249;59.736;30.568;2023-02-11T08:05:06;99723.00;;;-0.60
73937;BMP180;59249;59.736;30.568;2023-02-11T08:07:36;99716.00;;;-0.60
73937;BMP180;59249;59.736;30.568;2023-02-11T08:10:05;99718.00;;;-0.60
73937;BMP180;59249;59.736;30.568;2023-02-11T08:12:35;99715.00;;;-0.50
73937;BMP180;59249;59.736;30.568;2023-02-11T08:15:04;99719.00;;;-0.60
73937;BMP180;59249;59.736;30.568;2023-02-11T08:17:33;99704.00;;;-0.50
73937;BMP180;59249;59.736;30.568;2023-02-11T08:20:03;99716.00;;;-0.50
73937;BMP180;59249;59.736;30.568;2023-02-11T08:22:32;99724.00;;;-0.50
73937;BMP180;59249;59.736;30.568;2023-02-11T08:25:03;99719.00;;;-0.40
73937;BMP180;59249;59.736;30.568;2023-02-11T08:27:33;99706.00;;;0.00
73937;BMP180;59249;59.736;30.568;2023-02-11T08:30:01;99710.00;;;0.00
73937;BMP180;59249;59.736;30.568;2023-02-11T08:32:30;99712.00;;;0.00
73937;BMP180;59249;59.736;30.568;2023-02-11T08:35:02;99696.00;;;-0.20
73937;BMP180;59249;59.736;30.568;2023-02-11T08:37:31;99688.00;;;-0.50
73937;BMP180;59249;59.736;30.568;2023-02-11T08:40:00;99685.00;;;-0.50
73937;BMP180;59249;59.736;30.568;2023-02-11T08:42:30;99682.00;;;-0.70
73937;BMP180;59249;59.736;30.568;2023-02-11T08:44:59;99692.00;;;-0.70
73937;BMP180;59249;59.736;30.568;2023-02-11T08:47:29;99685.00;;;-0.70
73937;BMP180;59249;59.736;30.568;2023-02-11T08:49:58;99684.00;;;-0.60
73937;BMP180;59249;59.736;30.568;2023-02-11T08:52:27;99684.00;;;-0.50
73937;BMP180;59249;59.736;30.568;2023-02-11T08:54:55;99679.00;;;-0.40
73937;BMP180;59249;59.736;30.568;2023-02-11T08:57:24;99674.00;;;-0.50
73937;BMP180;59249;59.736;30.568;2023-02-11T08:59:55;99683.00;;;-0.60
73937;BMP180;59249;59.736;30.568;2023-02-11T09:02:24;99687.00;;;-0.40
73937;BMP180;59249;59.736;30.568;2023-02-11T09:04:53;99689.00;;;-0.50
73937;BMP180;59249;59.736;30.568;2023-02-11T09:07:23;99681.00;;;-0.40
73937;BMP180;59249;59.736;30.568;2023-02-11T09:09:52;99675.00;;;-0.60
73937;BMP180;59249;59.736;30.568;2023-02-11T09:12:20;99682.00;;;-0.60
73937;BMP180;59249;59.736;30.568;2023-02-11T09:14:49;99678.00;;;-0.70
73937;BMP180;59249;59.736;30.568;2023-02-11T09:17:19;99682.00;;;-0.60
73937;BMP180;59249;59.736;30.568;2023-02-11T09:19:48;99677.00;;;-0.80
73937;BMP180;59249;59.736;30.568;2023-02-11T09:22:16;99680.00;;;-0.80
73937;BMP180;59249;59.736;30.568;2023-02-11T09:24:45;99672.00;;;-0.60
73937;BMP180;59249;59.736;30.568;2023-02-11T09:27:13;99668.00;;;-0.70
73937;BMP180;59249;59.736;30.568;2023-02-11T09:29:42;99670.00;;;-0.60
73937;BMP180;59249;59.736;30.568;2023-02-11T09:32:12;99679.00;;;-0.60
73937;BMP180;59249;59.736;30.568;2023-02-11T09:34:43;99677.00;;;-0.40
73937;BMP180;59249;59.736;30.568;2023-02-11T09:37:13;99674.00;;;-0.30
73937;BMP180;59249;59.736;30.568;2023-02-11T09:39:43;99678.00;;;-0.20
73937;BMP180;59249;59.736;30.568;2023-02-11T09:42:41;99679.00;;;-0.20
73937;BMP180;59249;59.736;30.568;2023-02-11T09:45:17;99682.00;;;-0.20
73937;BMP180;59249;59.736;30.568;2023-02-11T09:47:52;99671.00;;;-0.20
73937;BMP180;59249;59.736;30.568;2023-02-11T09:50:29;99676.00;;;-0.20
73937;BMP180;59249;59.736;30.568;2023-02-11T09:53:02;99675.00;;;-0.10
73937;BMP180;59249;59.736;30.568;2023-02-11T09:55:35;99660.00;;;-0.20
73937;BMP180;59249;59.736;30.568;2023-02-11T09:58:12;99668.00;;;-0.10
73937;BMP180;59249;59.736;30.568;2023-02-11T10:00:47;99672.00;;;-0.10
73937;BMP180;59249;59.736;30.568;2023-02-11T10:03:56;99670.00;;;-0.10
73937;BMP180;59249;59.736;30.568;2023-02-11T10:06:39;99665.00;;;-0.20
73937;BMP180;59249;59.736;30.568;2023-02-11T10:12:25;99667.00;;;-0.10
73937;BMP180;59249;59.736;30.568;2023-02-11T10:15:16;99658.00;;;-0.10
73937;BMP180;59249;59.736;30.568;2023-02-11T10:18:15;99660.00;;;0.00
73937;BMP180;59249;59.736;30.568;2023-02-11T10:21:07;99669.00;;;0.00
73937;BMP180;59249;59.736;30.568;2023-02-11T10:23:50;99673.00;;;0.00
73937;BMP180;59249;59.736;30.568;2023-02-11T10:26:28;99675.00;;;0.30
73937;BMP180;59249;59.736;30.568;2023-02-11T10:29:13;99683.00;;;0.30
73937;BMP180;59249;59.736;30.568;2023-02-11T10:31:53;99675.00;;;0.30
73937;BMP180;59249;59.736;30.568;2023-02-11T10:34:25;99673.00;;;0.50
73937;BMP180;59249;59.736;30.568;2023-02-11T10:36:54;99675.00;;;0.40
73937;BMP180;59249;59.736;30.568;2023-02-11T10:39:25;99676.00;;;0.30
73937;BMP180;59249;59.736;30.568;2023-02-11T10:41:59;99677.00;;;0.50
73937;BMP180;59249;59.736;30.568;2023-02-11T10:44:36;99681.00;;;0.30
73937;BMP180;59249;59.736;30.568;2023-02-11T10:47:11;99679.00;;;0.50
73937;BMP180;59249;59.736;30.568;2023-02-11T10:49:45;99679.00;;;0.60
73937;BMP180;59249;59.736;30.568;2023-02-11T10:52:19;99667.00;;;0.60
73937;BMP180;59249;59.736;30.568;2023-02-11T10:55:14;99684.00;;;0.30
73937;BMP180;59249;59.736;30.568;2023-02-11T10:57:53;99676.00;;;0.30
73937;BMP180;59249;59.736;30.568;2023-02-11T11:00:42;99684.00;;;0.30
73937;BMP180;59249;59.736;30.568;2023-02-11T11:03:20;99692.00;;;0.20
73937;BMP180;59249;59.736;30.568;2023-02-11T11:05:56;99692.00;;;0.10
73937;BMP180;59249;59.736;30.568;2023-02-11T11:08:42;99702.00;;;0.30
73937;BMP180;59249;59.736;30.568;2023-02-11T11:11:16;99706.00;;;0.10
73937;BMP180;59249;59.736;30.568;2023-02-11T11:13:54;99709.00;;;0.20
73937;BMP180;59249;59.736;30.568;2023-02-11T11:16:26;99713.00;;;0.10
73937;BMP180;59249;59.736;30.568;2023-02-11T11:19:14;99722.00;;;0.00
73937;BMP180;59249;59.736;30.568;2023-02-11T11:21:48;99713.00;;;0.00
73937;BMP180;59249;59.736;30.568;2023-02-11T11:24:21;99709.00;;;0.00
73937;BMP180;59249;59.736;30.568;2023-02-11T11:27:01;99710.00;;;0.10
73937;BMP180;59249;59.736;30.568;2023-02-11T11:29:35;99705.00;;;0.00
73937;BMP180;59249;59.736;30.568;2023-02-11T11:32:10;99721.00;;;0.20
73937;BMP180;59249;59.736;30.568;2023-02-11T11:34:49;99718.00;;;0.20
73937;BMP180;59249;59.736;30.568;2023-02-11T11:37:22;99729.00;;;0.40
73937;BMP180;59249;59.736;30.568;2023-02-11T11:39:56;99738.00;;;0.40
73937;BMP180;59249;59.736;30.568;2023-02-11T11:42:40;99747.00;;;0.30
73937;BMP180;59249;59.736;30.568;2023-02-11T11:45:23;99752.00;;;0.30
73937;BMP180;59249;59.736;30.568;2023-02-11T11:47:55;99757.00;;;0.40
73937;BMP180;59249;59.736;30.568;2023-02-11T11:50:33;99761.00;;;0.20
73937;BMP180;59249;59.736;30.568;2023-02-11T11:53:09;99768.00;;;0.20
73937;BMP180;59249;59.736;30.568;2023-02-11T11:55:44;99776.00;;;0.10
73937;BMP180;59249;59.736;30.568;2023-02-11T11:58:20;99775.00;;;0.10
73937;BMP180;59249;59.736;30.568;2023-02-11T12:01:01;99782.00;;;0.20
73937;BMP180;59249;59.736;30.568;2023-02-11T12:04:17;99789.00;;;0.10
73937;BMP180;59249;59.736;30.568;2023-02-11T12:07:01;99793.00;;;0.30
73937;BMP180;59249;59.736;30.568;2023-02-11T12:09:45;99805.00;;;0.30
73937;BMP180;59249;59.736;30.568;2023-02-11T12:12:42;99799.00;;;0.20
73937;BMP180;59249;59.736;30.568;2023-02-11T12:15:30;99826.00;;;0.20
73937;BMP180;59249;59.736;30.568;2023-02-11T12:18:12;99832.00;;;0.10
73937;BMP180;59249;59.736;30.568;2023-02-11T12:21:15;99844.00;;;0.10
73937;BMP180;59249;59.736;30.568;2023-02-11T12:24:23;99862.00;;;0.20
73937;BMP180;59249;59.736;30.568;2023-02-11T12:27:03;99865.00;;;0.20
73937;BMP180;59249;59.736;30.568;2023-02-11T12:29:39;99866.00;;;0.20
73937;BMP180;59249;59.736;30.568;2023-02-11T12:32:27;99862.00;;;0.10
73937;BMP180;59249;59.736;30.568;2023-02-11T12:35:27;99881.00;;;0.00
73937;BMP180;59249;59.736;30.568;2023-02-11T12:38:22;99883.00;;;0.10
73937;BMP180;59249;59.736;30.568;2023-02-11T12:41:24;99896.00;;;-0.10
73937;BMP180;59249;59.736;30.568;2023-02-11T12:44:23;99905.00;;;0.00
73937;BMP180;59249;59.736;30.568;2023-02-11T12:47:05;99910.00;;;-0.20
73937;BMP180;59249;59.736;30.568;2023-02-11T12:50:10;99914.00;;;-0.10
73937;BMP180;59249;59.736;30.568;2023-02-11T12:52:56;99913.00;;;0.10
73937;BMP180;59249;59.736;30.568;2023-02-11T12:55:39;99926.00;;;0.10
73937;BMP180;59249;59.736;30.568;2023-02-11T12:58:15;99930.00;;;0.00
73937;BMP180;59249;59.736;30.568;2023-02-11T13:00:55;99927.00;;;0.00
73937;BMP180;59249;59.736;30.568;2023-02-11T13:03:34;99935.00;;;-0.10
73937;BMP180;59249;59.736;30.568;2023-02-11T13:06:12;99953.00;;;-0.10
73937;BMP180;59249;59.736;30.568;2023-02-11T13:08:46;99963.00;;;-0.10
73937;BMP180;59249;59.736;30.568;2023-02-11T13:11:19;99956.00;;;-0.10
73937;BMP180;59249;59.736;30.568;2023-02-11T13:13:53;99965.00;;;-0.20
73937;BMP180;59249;59.736;30.568;2023-02-11T13:16:34;99964.00;;;-0.30
73937;BMP180;59249;59.736;30.568;2023-02-11T13:19:14;99974.00;;;-0.40
73937;BMP180;59249;59.736;30.568;2023-02-11T13:22:09;99973.00;;;-0.40
73937;BMP180;59249;59.736;30.568;2023-02-11T13:24:43;99972.00;;;-0.50
73937;BMP180;59249;59.736;30.568;2023-02-11T13:27:23;99982.00;;;-0.50
73937;BMP180;59249;59.736;30.568;2023-02-11T13:30:20;99988.00;;;-0.50
73937;BMP180;59249;59.736;30.568;2023-02-11T13:33:18;100006.00;;;-0.50
73937;BMP180;59249;59.736;30.568;2023-02-11T13:36:12;100021.00;;;-0.40
73937;BMP180;59249;59.736;30.568;2023-02-11T13:38:54;100036.00;;;-0.30
73937;BMP180;59249;59.736;30.568;2023-02-11T13:41:34;100029.00;;;-0.50
73937;BMP180;59249;59.736;30.568;2023-02-11T13:44:21;100036.00;;;-0.60
73937;BMP180;59249;59.736;30.568;2023-02-11T13:46:56;100033.00;;;-0.60
73937;BMP180;59249;59.736;30.568;2023-02-11T13:49:33;100050.00;;;-0.60
73937;BMP180;59249;59.736;30.568;2023-02-11T13:52:19;100042.00;;;-0.60
73937;BMP180;59249;59.736;30.568;2023-02-11T13:54:53;100054.00;;;-0.60
73937;BMP180;59249;59.736;30.568;2023-02-11T13:57:29;100067.00;;;-0.60
73937;BMP180;59249;59.736;30.568;2023-02-11T14:00:01;100063.00;;;-0.50
73937;BMP180;59249;59.736;30.568;2023-02-11T14:02:36;100068.00;;;-0.50
73937;BMP180;59249;59.736;30.568;2023-02-11T14:05:25;100079.00;;;-0.60
73937;BMP180;59249;59.736;30.568;2023-02-11T14:08:23;100088.00;;;-0.60
73937;BMP180;59249;59.736;30.568;2023-02-11T14:11:42;100081.00;;;-0.70
73937;BMP180;59249;59.736;30.568;2023-02-11T14:14:16;100092.00;;;-0.70
73937;BMP180;59249;59.736;30.568;2023-02-11T14:17:17;100093.00;;;-0.80
73937;BMP180;59249;59.736;30.568;2023-02-11T14:19:57;100105.00;;;-0.80
73937;BMP180;59249;59.736;30.568;2023-02-11T14:22:39;100107.00;;;-0.90
73937;BMP180;59249;59.736;30.568;2023-02-11T14:25:19;100120.00;;;-1.00
73937;BMP180;59249;59.736;30.568;2023-02-11T14:27:54;100123.00;;;-1.00
73937;BMP180;59249;59.736;30.568;2023-02-11T14:30:33;100133.00;;;-1.10
73937;BMP180;59249;59.736;30.568;2023-02-11T14:36:46;100148.00;;;-1.20
73937;BMP180;59249;59.736;30.568;2023-02-11T14:39:31;100141.00;;;-1.20
73937;BMP180;59249;59.736;30.568;2023-02-11T14:42:15;100145.00;;;-1.20
73937;BMP180;59249;59.736;30.568;2023-02-11T14:44:49;100155.00;;;-1.30
73937;BMP180;59249;59.736;30.568;2023-02-11T14:47:23;100160.00;;;-1.30
73937;BMP180;59249;59.736;30.568;2023-02-11T14:49:56;100165.00;;;-1.40
73937;BMP180;59249;59.736;30.568;2023-02-11T14:52:26;100161.00;;;-1.50